Time;durP1;ratioP1;P1;durP2;ratioP2;P2;SDS_P1;SDS_P2;PMS_P1;PMS_P2;Temp;Humidity;BMP_temperature;BMP_pressure;BME280_temperature;BME280_humidity;BME280_pressure;Samples;Min_cycle;Max_cycle;Signal;HPM_P1;HPM_P2
2022/10/12 00:03:52;;;;;;;47.97;23.25;;;;;12.00;96998.00;;;;8361372;28;20226;-75
2022/10/12 00:07:55;;;;;;;51.35;23.33;;;;;12.00;97005.00;;;;8361529;28;20554;-75
2022/10/12 00:12:33;;;;;;;57.80;24.17;;;;;12.00;97003.00;;;;8361258;28;20571;-75
2022/10/12 00:16:38;;;;;;;48.03;23.15;;;;;12.00;97008.00;;;;8361619;28;20214;-74
2022/10/12 00:20:41;;;;;;;57.13;24.15;;;;;12.10;97001.00;;;;8361124;28;20228;-75
2022/10/12 00:24:44;;;;;;;49.50;23.25;;;;;12.00;96998.00;;;;8364759;28;20214;-73
2022/10/12 00:29:05;;;;;;;51.08;22.77;;;;;12.00;97007.00;;;;8360640;28;20224;-75
2022/10/12 00:33:10;;;;;;;46.90;21.80;;;;;12.00;97004.00;;;;8360635;28;20272;-75
2022/10/12 00:37:13;;;;;;;50.33;22.65;;;;;12.10;97000.00;;;;8359713;28;20221;-75
2022/10/12 00:41:50;;;;;;;44.35;21.60;;;;;12.10;96996.00;;;;8361110;28;20221;-75
2022/10/12 00:45:53;;;;;;;53.33;22.38;;;;;12.10;96996.00;;;;8362635;28;20322;-75
2022/10/12 00:50:02;;;;;;;48.22;22.25;;;;;12.10;96991.00;;;;8360701;28;20221;-75
2022/10/12 00:54:09;;;;;;;61.72;23.95;;;;;12.20;96986.00;;;;8361034;28;20219;-75
2022/10/12 00:58:15;;;;;;;48.28;23.42;;;;;12.20;96980.00;;;;8360709;28;20241;-75
2022/10/12 01:02:19;;;;;;;50.33;23.88;;;;;12.30;96983.00;;;;8363416;28;20217;-75
2022/10/12 01:06:55;;;;;;;48.83;22.98;;;;;12.30;96982.00;;;;8360399;28;20236;-74
2022/10/12 01:10:58;;;;;;;49.90;23.60;;;;;12.30;96981.00;;;;8359879;28;20223;-74
2022/10/12 01:15:02;;;;;;;45.78;21.73;;;;;12.30;96975.00;;;;8360617;28;20747;-75
2022/10/12 01:19:15;;;;;;;43.17;23.08;;;;;12.30;96986.00;;;;8360604;28;20224;-74
2022/10/12 01:23:44;;;;;;;53.85;22.67;;;;;12.30;96980.00;;;;8359751;28;20554;-74
2022/10/12 01:27:49;;;;;;;55.05;24.17;;;;;12.30;96987.00;;;;8359709;28;20664;-73
2022/10/12 01:31:59;;;;;;;51.22;23.58;;;;;12.30;96979.00;;;;8360661;28;20347;-74
2022/10/12 01:36:09;;;;;;;51.10;21.73;;;;;12.30;96968.00;;;;8359885;28;20222;-75
2022/10/12 01:40:16;;;;;;;48.72;22.92;;;;;12.30;96977.00;;;;8360329;28;20218;-75
2022/10/12 01:44:23;;;;;;;52.97;22.40;;;;;12.30;96963.00;;;;8363265;28;20224;-74
2022/10/12 01:48:59;;;;;;;45.42;21.40;;;;;12.20;96964.00;;;;8359120;28;20227;-74
2022/10/12 01:53:17;;;;;;;43.88;22.38;;;;;12.20;96958.00;;;;8365854;28;20229;-74
2022/10/12 01:57:31;;;;;;;39.45;20.50;;;;;12.20;96963.00;;;;8368417;28;20221;-74
2022/10/12 02:01:58;;;;;;;49.17;21.58;;;;;12.10;96963.00;;;;8356760;28;20215;-75
2022/10/12 02:06:05;;;;;;;59.80;24.80;;;;;12.10;96958.00;;;;8367150;28;20329;-74
2022/10/12 02:10:24;;;;;;;49.45;23.77;;;;;12.10;96964.00;;;;8365027;28;20278;-74
2022/10/12 02:14:54;;;;;;;47.80;24.08;;;;;12.10;96965.00;;;;8368049;28;20214;-74
2022/10/12 02:18:59;;;;;;;56.25;24.75;;;;;12.20;96961.00;;;;8364619;28;20234;-74
2022/10/12 02:23:03;;;;;;;61.65;25.48;;;;;12.30;96966.00;;;;8365115;28;20223;-75
2022/10/12 02:27:11;;;;;;;52.00;23.45;;;;;12.30;96966.00;;;;8364666;28;20228;-75
2022/10/12 02:31:24;;;;;;;52.33;24.35;;;;;12.40;96955.00;;;;8381631;28;20222;-74
2022/10/12 02:35:52;;;;;;;48.80;22.70;;;;;12.40;96952.00;;;;8364523;28;20220;-75
2022/10/12 02:40:03;;;;;;;51.28;25.17;;;;;12.40;96948.00;;;;8363963;28;20214;-74
2022/10/12 02:44:12;;;;;;;53.50;23.35;;;;;12.40;96947.00;;;;8364961;28;20225;-75
2022/10/12 02:48:20;;;;;;;53.92;23.85;;;;;12.40;96945.00;;;;8363480;28;20299;-76
2022/10/12 02:52:24;;;;;;;51.28;23.67;;;;;12.50;96945.00;;;;8363903;28;20216;-75
2022/10/12 02:56:27;;;;;;;48.83;23.08;;;;;12.50;96941.00;;;;8363880;28;20224;-75
2022/10/12 03:00:33;;;;;;;55.65;23.23;;;;;12.50;96941.00;;;;8362233;28;20276;-75
2022/10/12 03:05:07;;;;;;;48.40;22.75;;;;;12.50;96938.00;;;;8362272;28;20226;-75
2022/10/12 03:09:10;;;;;;;52.42;24.13;;;;;12.50;96934.00;;;;8363291;28;20238;-75
2022/10/12 03:13:47;;;;;;;48.88;23.48;;;;;12.50;96937.00;;;;8366650;28;20229;-76
2022/10/12 03:17:51;;;;;;;49.95;22.52;;;;;12.50;96945.00;;;;8362861;28;20223;-76
2022/10/12 03:21:54;;;;;;;46.88;21.38;;;;;12.50;96951.00;;;;8362232;28;20222;-76
2022/10/12 03:26:31;;;;;;;58.13;23.77;;;;;12.50;96953.00;;;;8363201;28;20230;-76
2022/10/12 03:30:35;;;;;;;39.58;20.63;;;;;12.50;96950.00;;;;8363483;28;20221;-75
2022/10/12 03:35:11;;;;;;;49.38;22.98;;;;;12.60;96953.00;;;;8362509;28;20718;-75
2022/10/12 03:39:16;;;;;;;41.67;21.17;;;;;12.60;96954.00;;;;8362038;28;20227;-75
2022/10/12 03:43:49;;;;;;;45.17;22.58;;;;;12.50;96951.00;;;;8360896;28;20225;-74
2022/10/12 03:47:53;;;;;;;55.58;23.02;;;;;12.50;96948.00;;;;8364893;28;20226;-75
2022/10/12 03:52:29;;;;;;;56.80;23.63;;;;;12.40;96949.00;;;;8360840;28;20215;-75
2022/10/12 03:57:07;;;;;;;45.80;21.65;;;;;12.40;96954.00;;;;8364023;28;20231;-75
2022/10/12 04:01:41;;;;;;;45.60;22.27;;;;;12.30;96953.00;;;;8394544;28;20227;-76
2022/10/12 04:05:44;;;;;;;44.45;20.75;;;;;12.30;96950.00;;;;8393397;28;20248;-71
2022/10/12 04:09:47;;;;;;;47.10;22.40;;;;;12.20;96948.00;;;;8393331;28;20527;-71
2022/10/12 04:13:52;;;;;;;56.75;24.27;;;;;12.30;96944.00;;;;8394331;28;20223;-72
2022/10/12 04:18:26;;;;;;;52.90;24.20;;;;;12.20;96945.00;;;;8392881;28;20227;-72
2022/10/12 04:23:02;;;;;;;50.38;22.73;;;;;12.20;96952.00;;;;8392429;28;20218;-73
2022/10/12 04:27:06;;;;;;;48.03;21.70;;;;;12.20;96955.00;;;;8392837;28;20279;-73
2022/10/12 04:31:10;;;;;;;57.40;22.63;;;;;12.20;96955.00;;;;8390985;28;20561;-73
2022/10/12 04:35:13;;;;;;;51.53;22.63;;;;;12.20;96957.00;;;;8394062;28;26177;-72
2022/10/12 04:39:50;;;;;;;49.67;22.42;;;;;12.20;96963.00;;;;8390530;28;20223;-71
2022/10/12 04:43:53;;;;;;;51.60;22.23;;;;;12.10;96955.00;;;;8392820;28;20319;-71
2022/10/12 04:48:28;;;;;;;57.05;24.35;;;;;12.10;96955.00;;;;8392346;28;20213;-71
2022/10/12 04:52:54;;;;;;;52.35;22.98;;;;;12.00;96957.00;;;;8363535;28;20226;-71
2022/10/12 04:56:57;;;;;;;65.22;24.33;;;;;12.00;96966.00;;;;8362832;28;20551;-71
2022/10/12 05:01:33;;;;;;;52.58;23.92;;;;;11.90;96974.00;;;;8360783;28;20541;-71
2022/10/12 05:05:38;;;;;;;55.88;23.38;;;;;11.80;96970.00;;;;8361545;28;20616;-71
2022/10/12 05:09:41;;;;;;;53.72;23.60;;;;;11.80;96965.00;;;;8360409;28;20220;-71
2022/10/12 05:13:44;;;;;;;53.47;23.35;;;;;11.80;96968.00;;;;8359673;28;20309;-72
2022/10/12 05:17:47;;;;;;;59.40;23.00;;;;;11.80;96960.00;;;;8359995;28;20228;-71
2022/10/12 05:22:25;;;;;;;52.72;22.60;;;;;11.80;96965.00;;;;8360689;28;20271;-71
2022/10/12 05:26:29;;;;;;;62.85;24.48;;;;;11.80;96964.00;;;;8369504;28;20254;-72
2022/10/12 05:30:33;;;;;;;54.40;23.52;;;;;11.80;96966.00;;;;8377416;28;20218;-72
2022/10/12 05:34:36;;;;;;;55.83;24.30;;;;;11.80;96980.00;;;;8397901;28;20226;-73
2022/10/12 05:38:39;;;;;;;56.88;24.02;;;;;11.80;96974.00;;;;8398759;28;20588;-73
2022/10/12 05:42:44;;;;;;;55.40;23.67;;;;;11.90;96965.00;;;;8397162;28;20660;-72
2022/10/12 05:47:18;;;;;;;56.58;24.48;;;;;11.80;96971.00;;;;8399507;28;20527;-73
2022/10/12 05:51:21;;;;;;;49.78;22.95;;;;;11.90;96975.00;;;;8364028;28;20641;-73
2022/10/12 05:55:58;;;;;;;54.92;22.70;;;;;11.90;96973.00;;;;8365045;28;20214;-72
2022/10/12 06:00:05;;;;;;;52.97;22.15;;;;;11.90;96983.00;;;;8364220;28;20227;-72
2022/10/12 06:04:08;;;;;;;58.75;23.70;;;;;12.00;96981.00;;;;8365441;28;20302;-71
2022/10/12 06:08:11;;;;;;;50.63;22.90;;;;;12.00;96983.00;;;;8365519;28;20232;-71
2022/10/12 06:12:48;;;;;;;50.25;21.98;;;;;12.00;96982.00;;;;8365537;28;20223;-72
2022/10/12 06:16:53;;;;;;;51.35;21.38;;;;;12.10;96983.00;;;;8364508;28;20222;-72
2022/10/12 06:20:56;;;;;;;54.28;23.10;;;;;12.10;96991.00;;;;8364334;28;20228;-72
2022/10/12 06:25:19;;;;;;;52.35;21.45;;;;;12.20;96981.00;;;;8364788;28;20217;-72
2022/10/12 06:29:23;;;;;;;50.58;21.52;;;;;12.20;96983.00;;;;8365534;28;20234;-72
2022/10/12 06:33:46;;;;;;;43.15;21.52;;;;;12.20;96982.00;;;;8362694;28;20693;-72
2022/10/12 06:38:20;;;;;;;45.55;21.00;;;;;12.20;96985.00;;;;8365144;28;20231;-72
2022/10/12 06:43:01;;;;;;;47.28;20.30;;;;;12.10;96987.00;;;;8364190;28;20248;-72
2022/10/12 06:47:04;;;;;;;45.38;20.40;;;;;12.20;97000.00;;;;8367177;28;20547;-72
2022/10/12 06:51:09;;;;;;;44.35;18.00;;;;;12.20;97003.00;;;;8363766;28;20223;-72
2022/10/12 06:55:43;;;;;;;44.05;20.40;;;;;12.20;96991.00;;;;8363994;28;20221;-72
2022/10/12 06:59:46;;;;;;;43.65;20.38;;;;;12.30;96999.00;;;;8365383;28;20292;-72
2022/10/12 07:03:49;;;;;;;55.03;25.05;;;;;12.40;97013.00;;;;8363543;28;20241;-72
2022/10/12 07:08:27;;;;;;;46.40;21.80;;;;;12.60;97011.00;;;;8361907;28;20223;-72
2022/10/12 07:12:31;;;;;;;43.47;19.65;;;;;12.90;97018.00;;;;8365798;28;20214;-71
2022/10/12 07:16:34;;;;;;;41.05;20.15;;;;;13.10;97011.00;;;;8363134;28;20216;-72
2022/10/12 07:21:10;;;;;;;41.17;19.67;;;;;13.20;97005.00;;;;8362203;28;20220;-73
2022/10/12 07:25:15;;;;;;;43.60;19.88;;;;;13.30;97011.00;;;;8395345;28;20223;-73
2022/10/12 07:29:18;;;;;;;38.40;17.92;;;;;13.50;97016.00;;;;8394333;28;20227;-73
2022/10/12 07:33:42;;;;;;;29.77;16.20;;;;;13.60;97006.00;;;;8395010;28;20374;-73
2022/10/12 07:37:48;;;;;;;39.97;18.13;;;;;13.70;97011.00;;;;8360699;28;20212;-73
2022/10/12 07:41:53;;;;;;;31.67;15.05;;;;;13.70;97017.00;;;;8361495;28;20238;-72
2022/10/12 07:46:27;;;;;;;33.22;16.52;;;;;13.80;97016.00;;;;8360687;28;20220;-73
2022/10/12 07:50:30;;;;;;;31.77;16.45;;;;;13.90;97013.00;;;;8365793;28;20265;-73
2022/10/12 07:55:10;;;;;;;40.22;16.33;;;;;14.10;97022.00;;;;8364843;28;20642;-73
2022/10/12 07:59:46;;;;;;;32.67;15.00;;;;;14.10;97022.00;;;;8356064;28;20224;-72
2022/10/12 08:03:49;;;;;;;30.85;14.70;;;;;14.20;97019.00;;;;8361825;28;20224;-80
2022/10/12 08:08:26;;;;;;;32.22;15.23;;;;;14.20;97022.00;;;;8358841;28;20236;-80
2022/10/12 08:13:03;;;;;;;28.05;14.30;;;;;14.30;97013.00;;;;8359712;28;20224;-81
2022/10/12 08:17:08;;;;;;;25.27;14.38;;;;;14.20;97019.00;;;;8361921;28;20300;-80
2022/10/12 08:21:42;;;;;;;26.00;14.43;;;;;14.20;97021.00;;;;8357279;28;20224;-79
2022/10/12 08:25:52;;;;;;;36.33;15.25;;;;;14.20;97025.00;;;;8355132;28;20220;-78
2022/10/12 08:30:25;;;;;;;33.42;16.75;;;;;14.10;97026.00;;;;8377610;28;20224;-80
2022/10/12 08:35:04;;;;;;;29.67;15.63;;;;;14.10;97029.00;;;;8390868;28;20626;-78
2022/10/12 08:39:07;;;;;;;34.30;16.23;;;;;14.10;97022.00;;;;8389480;28;20277;-77
2022/10/12 08:43:19;;;;;;;28.63;14.35;;;;;14.20;97022.00;;;;8391171;28;20231;-82
2022/10/12 08:47:50;;;;;;;36.13;15.48;;;;;14.40;97026.00;;;;8392334;28;20281;-77
2022/10/12 08:51:56;;;;;;;26.92;14.50;;;;;14.50;97024.00;;;;8392413;28;20665;-78
2022/10/12 08:56:00;;;;;;;29.35;15.10;;;;;14.60;97022.00;;;;8392605;28;20243;-77
2022/10/12 09:00:34;;;;;;;28.90;15.13;;;;;14.70;97021.00;;;;8386621;28;20223;-78
2022/10/12 09:05:07;;;;;;;28.77;15.25;;;;;14.90;97031.00;;;;8370465;28;20634;-72
2022/10/12 09:09:27;;;;;;;25.55;13.95;;;;;15.10;97026.00;;;;8364500;28;20235;-72
2022/10/12 09:13:42;;;;;;;27.23;14.43;;;;;15.40;97030.00;;;;8366087;28;20219;-72
2022/10/12 09:18:18;;;;;;;29.90;13.45;;;;;15.60;97024.00;;;;8370007;28;20229;-72
2022/10/12 09:22:45;;;;;;;23.90;13.65;;;;;15.90;97019.00;;;;8366224;28;20227;-72
2022/10/12 09:26:53;;;;;;;31.08;13.27;;;;;16.10;97029.00;;;;8362054;28;20550;-72
2022/10/12 09:31:07;;;;;;;23.40;12.88;;;;;16.50;97023.00;;;;8367310;28;20353;-72
2022/10/12 09:35:49;;;;;;;23.60;13.20;;;;;16.90;97022.00;;;;8369385;28;20228;-72
2022/10/12 09:39:52;;;;;;;22.17;12.45;;;;;17.10;97027.00;;;;8365122;28;20221;-72
2022/10/12 09:44:31;;;;;;;21.35;12.00;;;;;17.70;97023.00;;;;8365184;28;20227;-72
2022/10/12 09:48:34;;;;;;;16.50;11.45;;;;;18.30;97025.00;;;;8364444;28;20231;-72
2022/10/12 09:53:23;;;;;;;20.92;11.30;;;;;18.70;97020.00;;;;8368911;28;20220;-72
2022/10/12 09:57:30;;;;;;;22.92;11.27;;;;;19.10;97023.00;;;;8311911;28;20235;-72
2022/10/12 10:02:13;;;;;;;20.45;11.38;;;;;19.30;97022.00;;;;8363884;28;20255;-72
2022/10/12 10:06:42;;;;;;;22.90;10.70;;;;;19.60;97029.00;;;;8397519;28;20232;-72
2022/10/12 10:10:49;;;;;;;14.45;10.20;;;;;19.90;97031.00;;;;8396466;28;20216;-72
2022/10/12 10:15:27;;;;;;;15.55;10.00;;;;;20.40;97026.00;;;;8397608;28;20235;-72
2022/10/12 10:19:32;;;;;;;16.50;9.75;;;;;21.10;97030.00;;;;8395396;28;20641;-72
2022/10/12 10:24:08;;;;;;;14.95;10.00;;;;;21.20;97021.00;;;;8396654;28;20731;-72
2022/10/12 10:28:21;;;;;;;22.23;10.35;;;;;21.20;97028.00;;;;8394184;28;20224;-72
2022/10/12 10:32:27;;;;;;;18.92;10.73;;;;;21.50;97024.00;;;;8396963;28;20231;-72
2022/10/12 10:36:44;;;;;;;20.52;10.25;;;;;21.60;97026.00;;;;8396888;28;20220;-72
2022/10/12 10:41:16;;;;;;;21.25;9.93;;;;;21.70;97021.00;;;;8396589;28;20269;-72
2022/10/12 10:45:52;;;;;;;20.63;10.35;;;;;21.90;97024.00;;;;8395957;28;20212;-72
2022/10/12 10:49:58;;;;;;;20.65;10.63;;;;;21.60;97019.00;;;;8396551;28;20669;-72
2022/10/12 10:54:13;;;;;;;20.42;11.05;;;;;21.50;97015.00;;;;8395872;28;20216;-72
2022/10/12 10:58:37;;;;;;;18.58;10.23;;;;;21.20;97015.00;;;;8396761;28;20307;-71
2022/10/12 11:03:12;;;;;;;16.02;9.93;;;;;20.90;97013.00;;;;8396511;28;20219;-72
2022/10/12 11:07:47;;;;;;;19.90;9.68;;;;;20.50;97010.00;;;;8365811;28;20239;-76
2022/10/12 11:12:13;;;;;;;17.63;10.18;;;;;20.40;97007.00;;;;8362227;28;20231;-74
2022/10/12 11:16:29;;;;;;;17.17;9.55;;;;;20.30;97006.00;;;;8366642;28;20651;-76
2022/10/12 11:20:43;;;;;;;19.00;10.35;;;;;20.10;97000.00;;;;8362459;28;20286;-75
2022/10/12 11:25:13;;;;;;;20.35;11.07;;;;;20.10;97003.00;;;;8362380;28;20225;-75
2022/10/12 11:29:18;;;;;;;19.27;10.45;;;;;20.10;97003.00;;;;8395441;28;20220;-76
2022/10/12 11:33:25;;;;;;;21.88;10.18;;;;;20.00;96984.00;;;;8392823;28;20215;-75
2022/10/12 11:38:00;;;;;;;13.23;9.82;;;;;20.10;97001.00;;;;8394904;28;20314;-75
2022/10/12 11:42:07;;;;;;;18.70;9.13;;;;;20.40;96984.00;;;;8394408;28;20220;-75
2022/10/12 11:46:42;;;;;;;20.13;10.65;;;;;20.80;96977.00;;;;8392094;28;20224;-75
2022/10/12 11:50:48;;;;;;;17.10;8.45;;;;;21.10;96986.00;;;;8389248;28;20223;-75
2022/10/12 11:55:29;;;;;;;14.77;8.38;;;;;21.30;96978.00;;;;8388144;28;20261;-75
2022/10/12 12:00:05;;;;;;;20.98;8.57;;;;;21.30;96978.00;;;;8368768;28;20565;-74
2022/10/12 12:04:31;;;;;;;17.77;7.95;;;;;21.40;96975.00;;;;8387681;28;20220;-75
2022/10/12 12:08:57;;;;;;;17.58;8.82;;;;;21.60;96979.00;;;;8392109;28;20231;-75
2022/10/12 12:13:31;;;;;;;17.92;9.15;;;;;21.80;96966.00;;;;8393320;28;20219;-80
2022/10/12 12:18:11;;;;;;;18.75;8.93;;;;;21.90;96972.00;;;;8394049;28;20626;-81
2022/10/12 12:22:33;;;;;;;18.15;8.60;;;;;21.90;96958.00;;;;8392648;28;20697;-78
2022/10/12 12:26:54;;;;;;;13.10;7.82;;;;;21.70;96959.00;;;;8393436;28;20223;-79
2022/10/12 12:31:00;;;;;;;16.10;9.20;;;;;21.60;96953.00;;;;8392600;28;20632;-78
2022/10/12 12:35:03;;;;;;;15.80;8.45;;;;;21.70;96951.00;;;;8390465;28;20228;-78
2022/10/12 12:39:40;;;;;;;14.80;9.00;;;;;21.60;96950.00;;;;8392078;28;20657;-78
2022/10/12 12:44:28;;;;;;;21.08;8.88;;;;;21.60;96953.00;;;;8392884;28;20216;-81
2022/10/12 12:48:57;;;;;;;22.67;9.25;;;;;21.50;96948.00;;;;8392625;28;20276;-76
2022/10/12 12:53:30;;;;;;;17.27;7.32;;;;;21.60;96950.00;;;;8390530;28;20596;-72
2022/10/12 12:57:47;;;;;;;15.65;8.60;;;;;21.80;96941.00;;;;8392441;28;20224;-72
2022/10/12 13:02:19;;;;;;;17.30;8.02;;;;;21.70;96935.00;;;;8391538;28;20224;-72
2022/10/12 13:07:07;;;;;;;13.73;6.55;;;;;21.80;96943.00;;;;8392005;28;20224;-71
2022/10/12 13:11:44;;;;;;;10.73;5.95;;;;;21.70;96938.00;;;;8390771;28;20219;-71
2022/10/12 13:15:59;;;;;;;9.98;5.97;;;;;21.80;96925.00;;;;8392524;28;20303;-71
2022/10/12 13:20:26;;;;;;;15.68;6.78;;;;;21.90;96922.00;;;;8392329;28;20220;-71
2022/10/12 13:24:34;;;;;;;13.32;6.75;;;;;21.90;96920.00;;;;8391203;28;20220;-70
2022/10/12 13:29:07;;;;;;;14.35;6.63;;;;;21.70;96928.00;;;;8393655;28;20227;-71
2022/10/12 13:38:20;;;;;;;13.02;6.78;;;;;21.50;96935.00;;;;8391145;28;20220;-80
2022/10/12 13:42:45;;;;;;;17.65;6.10;;;;;21.50;96928.00;;;;8392192;28;20553;-75
2022/10/12 13:47:23;;;;;;;14.35;6.68;;;;;21.50;96926.00;;;;8396963;28;20215;-76
2022/10/12 13:51:58;;;;;;;17.27;6.18;;;;;21.40;96926.00;;;;8398200;28;20293;-75
2022/10/12 13:56:32;;;;;;;15.20;7.13;;;;;21.30;96923.00;;;;8398077;28;20215;-74
2022/10/12 14:00:37;;;;;;;11.05;7.25;;;;;21.20;96917.00;;;;8397917;28;20568;-75
2022/10/12 14:05:16;;;;;;;17.15;7.15;;;;;21.00;96908.00;;;;8398619;28;20235;-76
2022/10/12 14:09:49;;;;;;;15.55;6.20;;;;;20.90;96910.00;;;;8395925;28;20223;-75
2022/10/12 14:14:30;;;;;;;14.85;5.40;;;;;20.70;96902.00;;;;8397804;28;20633;-75
2022/10/12 14:19:15;;;;;;;14.57;5.82;;;;;20.40;96900.00;;;;8396691;28;20212;-75
2022/10/12 14:23:42;;;;;;;18.15;6.00;;;;;20.20;96906.00;;;;8397766;28;20269;-75
2022/10/12 14:28:21;;;;;;;12.10;5.38;;;;;20.00;96903.00;;;;8397282;28;20565;-75
2022/10/12 14:32:49;;;;;;;14.65;6.85;;;;;19.90;96894.00;;;;8396408;28;20216;-75
2022/10/12 14:37:25;;;;;;;11.45;5.80;;;;;19.70;96896.00;;;;8396598;28;20216;-75
2022/10/12 14:42:02;;;;;;;11.60;5.28;;;;;19.60;96892.00;;;;8397219;28;20235;-75
2022/10/12 14:46:36;;;;;;;15.77;6.20;;;;;19.50;96889.00;;;;8396898;28;20227;-75
2022/10/12 14:51:13;;;;;;;15.73;6.28;;;;;19.60;96882.00;;;;8397029;28;20624;-75
2022/10/12 14:55:22;;;;;;;14.15;6.47;;;;;19.60;96893.00;;;;8396024;28;20363;-74
2022/10/12 14:59:27;;;;;;;13.98;5.68;;;;;19.70;96890.00;;;;8396029;28;20224;-75
2022/10/12 15:04:00;;;;;;;13.18;4.95;;;;;19.60;96893.00;;;;8396384;28;20328;-75
2022/10/12 15:08:07;;;;;;;14.40;5.88;;;;;19.60;96890.00;;;;8396465;28;20219;-75
2022/10/12 15:12:38;;;;;;;11.27;5.03;;;;;19.60;96890.00;;;;8394988;28;20223;-75
2022/10/12 15:17:15;;;;;;;9.52;4.70;;;;;19.60;96887.00;;;;8395907;28;20215;-75
2022/10/12 15:21:20;;;;;;;11.70;4.82;;;;;19.60;96886.00;;;;8395603;28;20596;-75
2022/10/12 15:25:26;;;;;;;11.23;5.28;;;;;19.50;96877.00;;;;8396054;28;20216;-75
2022/10/12 15:30:00;;;;;;;17.08;5.28;;;;;19.40;96877.00;;;;8394795;28;20581;-75
2022/10/12 15:39:36;;;;;;;14.05;5.18;;;;;19.10;96872.00;;;;8394282;28;20314;-75
2022/10/12 15:43:50;;;;;;;12.02;4.95;;;;;18.90;96875.00;;;;8395798;28;20212;-76
2022/10/12 15:47:56;;;;;;;8.38;5.47;;;;;18.70;96874.00;;;;8386283;28;20240;-73
2022/10/12 15:52:30;;;;;;;14.25;6.20;;;;;18.50;96880.00;;;;8391149;28;20550;-76
2022/10/12 15:56:40;;;;;;;11.88;5.68;;;;;18.20;96875.00;;;;8393042;28;20215;-76
2022/10/12 16:01:12;;;;;;;16.77;5.95;;;;;17.90;96868.00;;;;8385850;28;20228;-76
2022/10/12 16:05:46;;;;;;;11.73;5.55;;;;;17.60;96870.00;;;;8393890;28;20250;-76
2022/10/12 16:09:49;;;;;;;8.68;6.10;;;;;17.40;96870.00;;;;8374299;28;20217;-77
2022/10/12 16:13:53;;;;;;;14.40;5.80;;;;;17.00;96868.00;;;;8382977;28;20239;-75
2022/10/12 16:18:26;;;;;;;15.05;5.35;;;;;16.70;96874.00;;;;8393419;28;20228;-75
2022/10/12 16:23:04;;;;;;;14.38;5.32;;;;;16.30;96874.00;;;;8392613;28;20219;-75
2022/10/12 16:27:39;;;;;;;8.45;5.30;;;;;16.10;96877.00;;;;8393281;28;20223;-74
2022/10/12 16:32:15;;;;;;;17.42;6.18;;;;;15.90;96884.00;;;;8392870;28;20227;-75
2022/10/12 16:36:54;;;;;;;15.23;6.38;;;;;15.70;96876.00;;;;8390743;28;20637;-74
2022/10/12 16:41:28;;;;;;;15.57;6.50;;;;;15.50;96881.00;;;;8391503;28;20216;-74
2022/10/12 16:46:03;;;;;;;17.02;6.15;;;;;15.30;96889.00;;;;8390744;28;20239;-75
2022/10/12 16:50:06;;;;;;;19.92;7.10;;;;;15.10;96888.00;;;;8391538;28;20224;-76
2022/10/12 16:54:45;;;;;;;13.13;7.75;;;;;15.00;96888.00;;;;8391640;28;20573;-72
2022/10/12 16:58:48;;;;;;;22.77;10.65;;;;;14.90;96892.00;;;;8390288;28;20277;-72
2022/10/12 17:03:26;;;;;;;19.73;8.73;;;;;14.80;96893.00;;;;8391971;28;20303;-73
2022/10/12 17:07:29;;;;;;;14.23;7.65;;;;;14.70;96884.00;;;;8390520;28;20230;-73
2022/10/12 17:11:36;;;;;;;16.50;8.25;;;;;14.50;96896.00;;;;8391773;28;20265;-74
2022/10/12 17:15:41;;;;;;;13.13;7.68;;;;;14.30;96902.00;;;;8392749;28;20275;-73
2022/10/12 17:20:14;;;;;;;17.10;9.35;;;;;14.00;96903.00;;;;8395163;28;20216;-72
2022/10/12 17:24:51;;;;;;;20.75;9.10;;;;;13.90;96913.00;;;;8397344;28;20215;-73
2022/10/12 17:29:31;;;;;;;21.98;10.52;;;;;13.80;96916.00;;;;8398542;28;20557;-73
2022/10/12 17:34:06;;;;;;;22.52;10.05;;;;;13.80;96915.00;;;;8397685;28;20215;-73
2022/10/12 17:38:39;;;;;;;21.30;11.43;;;;;13.90;96916.00;;;;8396532;28;20230;-72
2022/10/12 17:43:17;;;;;;;24.63;11.60;;;;;14.00;96912.00;;;;8398203;28;20216;-72
2022/10/12 17:47:55;;;;;;;22.00;12.50;;;;;14.00;96920.00;;;;8397268;28;20230;-80
2022/10/12 17:52:32;;;;;;;31.80;18.85;;;;;14.10;96918.00;;;;8391069;28;20219;-79
2022/10/12 17:57:09;;;;;;;59.50;45.42;;;;;14.10;96908.00;;;;8397209;28;20219;-79
2022/10/12 18:01:46;;;;;;;45.30;23.65;;;;;14.20;96906.00;;;;8396115;28;20230;-81
2022/10/12 18:06:24;;;;;;;30.13;15.85;;;;;14.10;96906.00;;;;8395537;28;20220;-81
2022/10/12 18:10:59;;;;;;;38.42;17.70;;;;;13.90;96903.00;;;;8397108;28;20216;-81
2022/10/12 18:15:40;;;;;;;40.10;20.80;;;;;13.80;96912.00;;;;8395649;28;20215;-83
2022/10/12 18:20:12;;;;;;;47.15;21.42;;;;;13.70;96914.00;;;;8395573;28;20598;-78
2022/10/12 18:24:50;;;;;;;31.30;17.80;;;;;13.60;96914.00;;;;8390885;28;20220;-77
2022/10/12 18:29:24;;;;;;;41.15;18.08;;;;;13.40;96913.00;;;;8396581;28;20215;-76
2022/10/12 18:34:01;;;;;;;40.00;18.70;;;;;13.30;96918.00;;;;8395634;28;20275;-75
2022/10/12 18:38:38;;;;;;;46.45;20.65;;;;;13.20;96916.00;;;;8395546;28;20216;-77
2022/10/12 18:42:42;;;;;;;49.55;22.13;;;;;13.10;96924.00;;;;8396500;28;20238;-76
2022/10/12 18:47:19;;;;;;;61.92;24.88;;;;;13.00;96919.00;;;;8394241;28;20261;-76
2022/10/12 18:51:57;;;;;;;66.00;27.05;;;;;12.90;96914.00;;;;8395089;28;20562;-76
2022/10/12 18:56:02;;;;;;;71.60;29.92;;;;;12.90;96911.00;;;;8394547;28;20219;-76
2022/10/12 19:00:09;;;;;;;76.43;30.73;;;;;13.00;96914.00;;;;8395612;28;20279;-76
2022/10/12 19:04:43;;;;;;;81.70;31.55;;;;;13.10;96913.00;;;;8395792;28;20322;-75
2022/10/12 19:09:20;;;;;;;71.75;29.40;;;;;13.20;96916.00;;;;8395379;28;20226;-74
2022/10/12 19:13:29;;;;;;;86.40;29.58;;;;;13.20;96918.00;;;;8395455;28;20283;-74
2022/10/12 19:18:07;;;;;;;83.88;32.03;;;;;13.30;96913.00;;;;8394841;28;20219;-74
2022/10/12 19:22:47;;;;;;;79.68;31.25;;;;;13.30;96921.00;;;;8395244;28;20235;-77
2022/10/12 19:26:51;;;;;;;72.53;30.15;;;;;13.40;96922.00;;;;8394826;28;20231;-76
2022/10/12 19:30:54;;;;;;;80.03;30.20;;;;;13.50;96920.00;;;;8393980;28;20222;-76
2022/10/12 19:35:35;;;;;;;71.85;30.80;;;;;13.70;96919.00;;;;8394723;28;20229;-76
2022/10/12 19:39:43;;;;;;;87.20;33.22;;;;;13.70;96921.00;;;;8380994;28;20218;-77
2022/10/12 19:44:14;;;;;;;94.95;34.33;;;;;13.80;96920.00;;;;8390349;28;20220;-77
2022/10/12 19:48:51;;;;;;;95.20;35.65;;;;;13.90;96913.00;;;;8394061;28;20228;-77
2022/10/12 19:53:27;;;;;;;91.82;34.28;;;;;14.00;96923.00;;;;8394501;28;20219;-77
2022/10/12 19:58:01;;;;;;;79.72;30.98;;;;;14.10;96924.00;;;;8393840;28;20227;-78
2022/10/12 20:02:40;;;;;;;73.20;31.60;;;;;14.10;96927.00;;;;8392549;28;20223;-78
2022/10/12 20:07:13;;;;;;;72.95;30.33;;;;;14.10;96927.00;;;;8393620;28;20220;-76
2022/10/12 20:11:52;;;;;;;58.20;26.27;;;;;14.10;96927.00;;;;8360212;28;20274;-76
2022/10/12 20:16:26;;;;;;;68.55;27.85;;;;;14.00;96924.00;;;;8359498;28;20227;-76
2022/10/12 20:21:00;;;;;;;60.53;27.50;;;;;13.90;96933.00;;;;8360617;28;20226;-80
2022/10/12 20:25:03;;;;;;;59.70;26.05;;;;;13.80;96927.00;;;;8359849;28;20227;-80
2022/10/12 20:29:41;;;;;;;66.38;28.75;;;;;13.70;96935.00;;;;8360860;28;20242;-80
2022/10/12 20:33:44;;;;;;;72.25;29.58;;;;;13.70;96930.00;;;;8360331;28;20688;-79
2022/10/12 20:37:47;;;;;;;82.63;30.48;;;;;13.70;96925.00;;;;8360793;28;20263;-80
2022/10/12 20:42:24;;;;;;;76.75;28.60;;;;;13.60;96929.00;;;;8353012;28;20228;-80
2022/10/12 20:46:30;;;;;;;76.15;28.75;;;;;13.60;96933.00;;;;8359141;28;20223;-81
2022/10/12 20:51:05;;;;;;;74.97;29.05;;;;;13.50;96929.00;;;;8358466;28;20242;-80
2022/10/12 20:55:09;;;;;;;75.90;29.10;;;;;13.40;96930.00;;;;8331877;28;20726;-80
2022/10/12 20:59:44;;;;;;;78.65;30.08;;;;;13.30;96923.00;;;;8359114;28;20605;-81
2022/10/12 21:03:49;;;;;;;73.78;29.10;;;;;13.20;96905.00;;;;8359853;28;20631;-81
2022/10/12 21:08:22;;;;;;;76.18;28.00;;;;;13.10;96911.00;;;;8358585;28;20235;-81
2022/10/12 21:12:26;;;;;;;100.45;32.13;;;;;13.10;96918.00;;;;8359268;28;20212;-81
2022/10/12 21:16:29;;;;;;;99.03;31.65;;;;;13.10;96921.00;;;;8359199;28;20226;-80
2022/10/12 21:21:03;;;;;;;87.18;30.70;;;;;13.00;96914.00;;;;8359573;28;20741;-81
2022/10/12 21:25:08;;;;;;;75.30;28.70;;;;;12.90;96913.00;;;;8359065;28;20227;-80
2022/10/12 21:29:12;;;;;;;79.88;28.90;;;;;12.80;96918.00;;;;8359742;28;20232;-81